Time;durP1;ratioP1;P1;durP2;ratioP2;P2;SDS_P1;SDS_P2;PMS_P1;PMS_P2;Temp;Humidity;BMP_temperature;BMP_pressure;BME280_temperature;BME280_humidity;BME280_pressure;Samples;Min_cycle;Max_cycle;Signal;HPM_P1;HPM_P2
2022/10/24 00:01:11;;;;;;;2.65;2.45;;;9.40;99.90;;;;;;5043592;28;20391;-65
2022/10/24 00:03:39;;;;;;;2.50;1.98;;;9.40;99.90;;;;;;5037969;28;20140;-66
2022/10/24 00:06:07;;;;;;;2.97;2.33;;;9.40;99.90;;;;;;5044836;28;20059;-66
2022/10/24 00:08:35;;;;;;;1.92;1.83;;;9.40;99.90;;;;;;5037935;28;20044;-64
2022/10/24 00:11:10;;;;;;;3.05;2.53;;;9.30;99.90;;;;;;5038090;28;20124;-66
2022/10/24 00:13:38;;;;;;;2.05;1.95;;;9.30;99.90;;;;;;5045300;28;20091;-66
2022/10/24 00:16:05;;;;;;;3.35;2.47;;;9.30;99.90;;;;;;5045189;28;20892;-67
2022/10/24 00:18:32;;;;;;;3.25;2.10;;;9.30;99.90;;;;;;5041791;28;20040;-66
2022/10/24 00:20:59;;;;;;;2.30;2.10;;;9.30;99.90;;;;;;5047687;28;20056;-66
2022/10/24 00:23:26;;;;;;;3.00;2.15;;;9.30;99.90;;;;;;5041900;28;20053;-66
2022/10/24 00:25:53;;;;;;;2.40;2.20;;;9.30;99.90;;;;;;5043157;28;20049;-64
2022/10/24 00:28:20;;;;;;;2.70;2.40;;;9.30;99.90;;;;;;5044468;28;20048;-66
2022/10/24 00:30:51;;;;;;;2.58;2.10;;;9.30;99.90;;;;;;5042878;28;20040;-69
2022/10/24 00:33:18;;;;;;;3.20;2.90;;;9.30;99.90;;;;;;5044180;28;20088;-65
2022/10/24 00:35:45;;;;;;;2.97;2.47;;;9.30;99.90;;;;;;5041496;28;20140;-65
2022/10/24 00:38:12;;;;;;;2.45;2.15;;;9.20;99.90;;;;;;5045629;28;20111;-65
2022/10/24 00:40:40;;;;;;;2.45;2.25;;;9.20;99.90;;;;;;5040474;28;20041;-65
2022/10/24 00:43:15;;;;;;;2.72;2.45;;;9.20;99.90;;;;;;5041881;28;20045;-65
2022/10/24 00:45:55;;;;;;;2.85;2.55;;;9.20;99.90;;;;;;5041893;28;20045;-66
2022/10/24 00:48:42;;;;;;;;;;;9.20;99.90;;;;;;5040643;28;20053;-65
2022/10/24 00:51:26;;;;;;;3.08;2.75;;;9.30;99.90;;;;;;5042556;28;19929;-67
2022/10/24 00:54:02;;;;;;;3.25;2.95;;;9.30;99.90;;;;;;5043917;28;20047;-66
2022/10/24 00:56:34;;;;;;;3.88;2.83;;;9.20;99.90;;;;;;5040193;28;20049;-66
2022/10/24 00:59:03;;;;;;;4.28;2.97;;;9.20;99.90;;;;;;5040091;28;20057;-67
2022/10/24 01:01:32;;;;;;;3.47;3.17;;;9.20;99.90;;;;;;5042176;28;20554;-65
2022/10/24 01:04:00;;;;;;;6.93;4.32;;;9.20;99.90;;;;;;5040047;28;20041;-66
2022/10/24 01:06:33;;;;;;;3.60;3.10;;;9.20;99.90;;;;;;5043206;28;20052;-66
2022/10/24 01:09:29;;;;;;;3.35;3.08;;;9.30;99.90;;;;;;5046170;28;20037;-65
2022/10/24 01:11:56;;;;;;;4.88;3.78;;;9.30;99.90;;;;;;5040721;28;20053;-67
2022/10/24 01:14:47;;;;;;;3.88;3.47;;;9.30;99.90;;;;;;5039808;28;20045;-67
2022/10/24 01:17:21;;;;;;;;;;;9.30;99.90;;;;;;5042239;28;20056;-66
2022/10/24 01:19:53;;;;;;;4.97;4.47;;;9.30;99.90;;;;;;5042651;28;19925;-66
2022/10/24 01:22:27;;;;;;;6.57;5.63;;;9.30;99.90;;;;;;5038283;28;20069;-66
2022/10/24 01:25:05;;;;;;;7.10;5.22;;;9.30;99.90;;;;;;5038798;28;20052;-70
2022/10/24 01:27:38;;;;;;;5.15;4.65;;;9.30;99.90;;;;;;5055123;28;20045;-66
2022/10/24 01:30:12;;;;;;;6.55;5.00;;;9.30;99.90;;;;;;5041750;28;20052;-65
2022/10/24 01:32:57;;;;;;;5.97;5.38;;;9.30;99.90;;;;;;5038521;28;20148;-65
2022/10/24 01:35:35;;;;;;;5.63;4.30;;;9.30;99.90;;;;;;5038796;28;20051;-65
2022/10/24 01:38:15;;;;;;;4.72;4.10;;;9.30;99.90;;;;;;5040325;28;20103;-65
2022/10/24 01:41:09;;;;;;;6.18;4.15;;;9.30;99.90;;;;;;5034732;28;20054;-65
2022/10/24 01:44:03;;;;;;;4.55;3.72;;;9.30;99.90;;;;;;5035304;28;20144;-69
2022/10/24 01:46:41;;;;;;;4.75;4.20;;;9.30;99.90;;;;;;5039374;28;20161;-68
2022/10/24 01:49:17;;;;;;;5.85;3.38;;;9.30;99.90;;;;;;5040350;28;20051;-65
2022/10/24 01:51:47;;;;;;;5.45;3.38;;;9.30;99.90;;;;;;5039525;28;20112;-65
2022/10/24 01:54:15;;;;;;;4.07;3.67;;;9.30;99.90;;;;;;5044946;28;20047;-65
2022/10/24 01:56:41;;;;;;;3.47;3.17;;;9.30;99.90;;;;;;5035278;28;20060;-66
2022/10/24 01:59:28;;;;;;;3.40;3.10;;;9.30;99.90;;;;;;5043820;28;20153;-69
2022/10/24 02:01:58;;;;;;;3.15;2.63;;;9.30;99.90;;;;;;5040370;28;20055;-65
2022/10/24 02:04:28;;;;;;;3.63;3.30;;;9.30;99.90;;;;;;5037951;28;20509;-70
2022/10/24 02:07:00;;;;;;;2.47;2.28;;;9.30;99.90;;;;;;5039840;28;20145;-67
2022/10/24 02:09:29;;;;;;;2.53;2.33;;;9.30;99.90;;;;;;5036890;28;20053;-67
2022/10/24 02:11:57;;;;;;;2.92;1.85;;;9.30;99.90;;;;;;5037706;28;20053;-65
2022/10/24 02:14:32;;;;;;;2.05;1.92;;;9.30;99.90;;;;;;5038547;28;20497;-65
2022/10/24 02:17:01;;;;;;;3.15;1.98;;;9.30;99.90;;;;;;5037857;28;20099;-66
2022/10/24 02:19:29;;;;;;;2.08;1.88;;;9.30;99.90;;;;;;5038413;28;20052;-66
2022/10/24 02:22:15;;;;;;;2.50;2.03;;;9.30;99.90;;;;;;5043618;28;20098;-68
2022/10/24 02:24:46;;;;;;;2.38;2.17;;;9.30;99.90;;;;;;5032568;28;20044;-64
2022/10/24 02:27:30;;;;;;;2.63;2.05;;;9.40;99.90;;;;;;5042859;28;20044;-66
2022/10/24 02:30:00;;;;;;;2.80;2.58;;;9.30;99.90;;;;;;5040984;28;20081;-66
2022/10/24 02:32:31;;;;;;;2.90;2.58;;;9.30;99.90;;;;;;5036236;28;20124;-66
2022/10/24 02:35:00;;;;;;;3.50;3.20;;;9.30;99.90;;;;;;5040860;28;20045;-69
2022/10/24 02:37:29;;;;;;;3.22;2.92;;;9.30;99.90;;;;;;5037107;28;20057;-64
2022/10/24 02:39:58;;;;;;;4.10;2.08;;;9.40;99.90;;;;;;5038722;28;20075;-66
2022/10/24 02:42:27;;;;;;;3.67;2.92;;;9.40;99.90;;;;;;5036232;28;20045;-65
2022/10/24 02:45:00;;;;;;;2.80;2.05;;;9.40;99.90;;;;;;5036099;28;20038;-65
2022/10/24 02:47:28;;;;;;;3.03;2.72;;;9.40;99.90;;;;;;5036778;28;20048;-69
2022/10/24 02:49:55;;;;;;;2.13;1.92;;;9.40;99.90;;;;;;5040071;28;20048;-67
2022/10/24 02:52:22;;;;;;;3.08;2.63;;;9.40;99.90;;;;;;5038905;28;20057;-66
2022/10/24 02:54:50;;;;;;;3.15;2.95;;;9.40;99.90;;;;;;5043109;28;20412;-66
2022/10/24 02:57:16;;;;;;;3.65;3.35;;;9.40;99.90;;;;;;5047571;28;20412;-66
2022/10/24 02:59:43;;;;;;;2.85;2.42;;;9.40;99.90;;;;;;5042471;28;20145;-65
2022/10/24 03:02:10;;;;;;;3.72;2.80;;;9.40;99.90;;;;;;5045487;28;20872;-64
2022/10/24 03:04:37;;;;;;;3.28;2.97;;;9.40;99.90;;;;;;5043593;28;20049;-66
2022/10/24 03:07:06;;;;;;;2.60;2.40;;;9.40;99.90;;;;;;5041806;28;20060;-64
2022/10/24 03:09:33;;;;;;;6.35;3.92;;;9.40;99.90;;;;;;5040332;28;20067;-66
2022/10/24 03:12:00;;;;;;;3.67;3.38;;;9.40;99.90;;;;;;5041086;28;20045;-66
2022/10/24 03:14:27;;;;;;;3.28;2.97;;;9.40;99.90;;;;;;5040381;28;20100;-65
2022/10/24 03:16:54;;;;;;;3.25;2.80;;;9.40;99.90;;;;;;5045307;28;20045;-65
2022/10/24 03:19:21;;;;;;;4.18;2.95;;;9.40;99.90;;;;;;5043119;28;20060;-65
2022/10/24 03:21:48;;;;;;;3.03;2.72;;;9.40;99.90;;;;;;5043778;28;20669;-66
2022/10/24 03:24:15;;;;;;;3.92;2.47;;;9.40;99.90;;;;;;5041694;28;20041;-66
2022/10/24 03:26:57;;;;;;;5.80;4.15;;;9.40;99.90;;;;;;5034609;28;20049;-65
2022/10/24 03:29:23;;;;;;;4.40;3.08;;;9.40;99.90;;;;;;5044699;28;20045;-66
2022/10/24 03:31:50;;;;;;;4.38;3.95;;;9.40;99.90;;;;;;5040292;28;20413;-66
2022/10/24 03:34:17;;;;;;;3.78;3.17;;;9.50;99.90;;;;;;5040994;28;20049;-64
2022/10/24 03:36:44;;;;;;;5.85;3.45;;;9.50;99.90;;;;;;5043890;28;20128;-65
2022/10/24 03:39:11;;;;;;;3.65;3.35;;;9.50;99.90;;;;;;5044236;28;20076;-66
2022/10/24 03:41:38;;;;;;;5.40;4.15;;;9.50;99.90;;;;;;5042969;28;20041;-65
2022/10/24 03:44:04;;;;;;;4.85;4.35;;;9.50;99.90;;;;;;5042878;28;20060;-65
2022/10/24 03:46:31;;;;;;;4.88;4.47;;;9.50;99.90;;;;;;5043403;28;20582;-66
2022/10/24 03:48:58;;;;;;;5.05;4.55;;;9.60;99.90;;;;;;5039190;28;20052;-65
2022/10/24 03:51:25;;;;;;;5.60;4.45;;;9.60;99.90;;;;;;5041396;28;20139;-66
2022/10/24 03:53:52;;;;;;;4.97;4.28;;;9.60;99.90;;;;;;5039915;28;20054;-66
2022/10/24 03:56:19;;;;;;;5.35;4.60;;;9.60;99.90;;;;;;5039929;28;20698;-67
2022/10/24 03:58:46;;;;;;;5.45;4.95;;;9.50;99.90;;;;;;5039872;28;20053;-64
2022/10/24 04:01:16;;;;;;;6.10;4.50;;;9.60;99.90;;;;;;5042933;28;20037;-67
2022/10/24 04:03:44;;;;;;;5.72;4.40;;;9.60;99.90;;;;;;5040349;28;20045;-64
2022/10/24 04:06:13;;;;;;;6.07;5.05;;;9.60;99.90;;;;;;5044800;28;20500;-64
2022/10/24 04:08:39;;;;;;;7.10;4.57;;;9.60;99.90;;;;;;5039525;28;20490;-65
2022/10/24 04:11:06;;;;;;;5.15;4.57;;;9.60;99.90;;;;;;5040436;28;20044;-64
2022/10/24 04:13:33;;;;;;;7.68;5.13;;;9.60;99.90;;;;;;5040396;28;21500;-67
2022/10/24 04:16:00;;;;;;;9.38;6.30;;;9.60;99.90;;;;;;5041444;28;20037;-64
2022/10/24 04:18:27;;;;;;;5.28;4.78;;;9.50;99.90;;;;;;5042939;28;20143;-64
2022/10/24 04:20:54;;;;;;;7.57;6.28;;;9.60;99.90;;;;;;5043353;28;20044;-65
2022/10/24 04:23:21;;;;;;;6.85;4.95;;;9.60;99.90;;;;;;5057608;28;20392;-68
2022/10/24 04:25:48;;;;;;;7.93;6.97;;;9.60;99.90;;;;;;5044206;28;20134;-69
2022/10/24 04:28:14;;;;;;;7.88;5.95;;;9.60;99.90;;;;;;5045647;28;20172;-64
2022/10/24 04:30:42;;;;;;;8.02;6.47;;;9.60;99.90;;;;;;5034408;28;20067;-64
2022/10/24 04:33:13;;;;;;;9.27;6.60;;;9.60;99.90;;;;;;5041904;28;20041;-65
2022/10/24 04:35:46;;;;;;;7.53;6.60;;;9.60;99.90;;;;;;5040930;28;20055;-70
2022/10/24 04:38:13;;;;;;;6.70;5.78;;;9.70;99.90;;;;;;5042648;28;20140;-66
2022/10/24 04:40:40;;;;;;;6.80;5.70;;;9.70;99.90;;;;;;5041408;28;20053;-64
2022/10/24 04:43:07;;;;;;;7.47;5.90;;;9.60;99.90;;;;;;5045927;28;20086;-67
2022/10/24 04:45:34;;;;;;;9.43;6.30;;;9.60;99.90;;;;;;5043117;28;20502;-64
2022/10/24 04:48:01;;;;;;;7.18;6.07;;;9.70;99.90;;;;;;5039214;28;20057;-65
2022/10/24 04:50:27;;;;;;;6.10;5.50;;;9.70;99.90;;;;;;5038478;28;20055;-67
2022/10/24 04:52:54;;;;;;;6.80;6.10;;;9.70;99.90;;;;;;5043507;28;20051;-65
2022/10/24 04:55:21;;;;;;;9.10;6.38;;;9.70;99.90;;;;;;5041584;28;20071;-67
2022/10/24 04:57:48;;;;;;;8.68;6.80;;;9.70;99.90;;;;;;5040913;28;20664;-66
2022/10/24 05:00:15;;;;;;;10.52;6.95;;;9.70;99.90;;;;;;5039071;28;20051;-66
2022/10/24 05:02:42;;;;;;;9.25;6.80;;;9.70;99.90;;;;;;5043458;28;20060;-66
2022/10/24 05:05:09;;;;;;;7.07;6.38;;;9.70;99.90;;;;;;5042597;28;20539;-65
2022/10/24 05:07:37;;;;;;;11.07;6.25;;;9.70;99.90;;;;;;5041709;28;20045;-66
2022/10/24 05:10:04;;;;;;;8.43;6.03;;;9.70;99.90;;;;;;5044262;28;20395;-66
2022/10/24 05:12:31;;;;;;;6.65;5.93;;;9.70;99.90;;;;;;5037842;28;20045;-64
2022/10/24 05:14:58;;;;;;;7.18;5.60;;;9.70;99.90;;;;;;5043183;28;20056;-65
2022/10/24 05:17:25;;;;;;;7.22;5.30;;;9.70;99.90;;;;;;5045442;28;20041;-66
2022/10/24 05:19:52;;;;;;;10.80;7.38;;;9.70;99.90;;;;;;5034732;28;20053;-64
2022/10/24 05:22:19;;;;;;;8.23;5.30;;;9.70;99.90;;;;;;5039187;28;20432;-66
2022/10/24 05:24:46;;;;;;;6.00;5.35;;;9.70;99.90;;;;;;5044298;28;20037;-64
2022/10/24 05:27:13;;;;;;;6.53;5.20;;;9.70;99.90;;;;;;5044135;28;20136;-65
2022/10/24 05:29:39;;;;;;;6.65;5.40;;;9.70;99.90;;;;;;5041921;28;20055;-66
2022/10/24 05:32:06;;;;;;;8.38;6.22;;;9.70;99.90;;;;;;5042760;28;20048;-65
2022/10/24 05:34:33;;;;;;;7.97;5.75;;;9.70;99.90;;;;;;5037392;28;20045;-66
2022/10/24 05:37:00;;;;;;;9.95;6.80;;;9.70;99.90;;;;;;5033630;28;20451;-67
2022/10/24 05:39:27;;;;;;;8.40;6.88;;;9.70;99.90;;;;;;5040541;28;20416;-64
2022/10/24 05:41:54;;;;;;;8.82;6.57;;;9.70;99.90;;;;;;5039685;28;20048;-66
2022/10/24 05:44:21;;;;;;;8.32;6.93;;;9.70;99.90;;;;;;5036423;28;20057;-65
2022/10/24 05:46:48;;;;;;;8.30;6.30;;;9.80;99.90;;;;;;5044103;28;20095;-64
2022/10/24 05:49:15;;;;;;;9.57;7.70;;;9.70;99.90;;;;;;5043756;28;20041;-67
2022/10/24 05:51:42;;;;;;;9.98;8.60;;;9.80;99.90;;;;;;5037017;28;20059;-66
2022/10/24 05:54:09;;;;;;;10.52;8.80;;;9.80;99.90;;;;;;5038845;28;20052;-67
2022/10/24 05:56:36;;;;;;;8.23;7.40;;;9.80;99.90;;;;;;5040918;28;20084;-65
2022/10/24 05:59:03;;;;;;;9.20;7.55;;;9.80;99.90;;;;;;5034739;28;20048;-65
2022/10/24 06:01:30;;;;;;;10.57;7.22;;;9.80;99.90;;;;;;5035777;28;20072;-65
2022/10/24 06:03:57;;;;;;;9.98;8.95;;;9.80;99.90;;;;;;5036081;28;20045;-66
2022/10/24 06:06:24;;;;;;;10.93;8.18;;;9.80;99.90;;;;;;5033618;28;20042;-64
2022/10/24 06:08:51;;;;;;;11.77;9.55;;;9.80;99.90;;;;;;5036888;28;20046;-65
2022/10/24 06:11:18;;;;;;;9.25;8.23;;;9.80;99.90;;;;;;5035558;28;20072;-67
2022/10/24 06:13:45;;;;;;;11.35;8.95;;;9.80;99.90;;;;;;5033567;28;20134;-65
2022/10/24 06:16:12;;;;;;;9.70;7.32;;;9.80;99.90;;;;;;5034847;28;20443;-64
2022/10/24 06:18:40;;;;;;;8.15;6.68;;;9.80;99.90;;;;;;5033917;28;20045;-68
2022/10/24 06:21:08;;;;;;;8.38;7.20;;;9.90;99.90;;;;;;5038320;28;20049;-65
2022/10/24 06:23:35;;;;;;;12.68;8.55;;;9.90;99.90;;;;;;5036625;28;20521;-65
2022/10/24 06:26:06;;;;;;;11.80;8.90;;;9.90;99.90;;;;;;5036613;28;20040;-64
2022/10/24 06:28:33;;;;;;;8.85;7.32;;;9.90;99.90;;;;;;5035717;28;20514;-64
2022/10/24 06:31:02;;;;;;;9.50;8.00;;;9.90;99.90;;;;;;5040583;28;20128;-65
2022/10/24 06:33:29;;;;;;;9.18;7.47;;;10.00;99.90;;;;;;5041923;28;20041;-66
2022/10/24 06:36:01;;;;;;;8.98;6.95;;;10.00;99.90;;;;;;5039341;28;20051;-64
2022/10/24 06:38:28;;;;;;;9.45;6.50;;;10.00;99.90;;;;;;5036807;28;20051;-65
2022/10/24 06:40:54;;;;;;;11.82;6.03;;;10.00;99.90;;;;;;5041999;28;20038;-64
2022/10/24 06:43:21;;;;;;;7.75;6.95;;;10.00;99.90;;;;;;5042974;28;20053;-70
2022/10/24 06:45:48;;;;;;;9.90;6.97;;;10.00;99.90;;;;;;5038850;28;20049;-65
2022/10/24 06:48:15;;;;;;;7.47;6.10;;;10.10;99.90;;;;;;5041239;28;20091;-65
2022/10/24 06:50:42;;;;;;;6.85;5.38;;;10.10;99.90;;;;;;5040833;28;20216;-65
2022/10/24 06:53:09;;;;;;;7.72;5.90;;;10.10;99.90;;;;;;5039419;28;20049;-66
2022/10/24 06:55:39;;;;;;;9.00;7.05;;;10.10;99.90;;;;;;5036337;28;20059;-68
2022/10/24 06:58:06;;;;;;;8.13;6.68;;;10.20;99.90;;;;;;5040160;28;20053;-65
2022/10/24 07:00:34;;;;;;;10.18;9.15;;;10.20;99.90;;;;;;5036863;28;20049;-66
2022/10/24 07:03:01;;;;;;;10.32;7.70;;;10.20;99.90;;;;;;5038174;28;20127;-65
2022/10/24 07:05:28;;;;;;;8.50;6.72;;;10.20;99.90;;;;;;5035983;28;20077;-65
2022/10/24 07:07:55;;;;;;;6.95;5.80;;;10.20;99.90;;;;;;5040289;28;20099;-65
2022/10/24 07:10:22;;;;;;;7.95;7.22;;;10.20;99.90;;;;;;5039980;28;20041;-66
2022/10/24 07:12:49;;;;;;;7.20;6.40;;;10.30;99.90;;;;;;5042061;28;20045;-64
2022/10/24 07:15:16;;;;;;;8.93;7.30;;;10.30;99.90;;;;;;5041435;28;20049;-66
2022/10/24 07:17:43;;;;;;;7.13;6.43;;;10.30;99.90;;;;;;5040170;28;20068;-70
2022/10/24 07:20:12;;;;;;;7.05;5.75;;;10.30;99.90;;;;;;5039730;28;20057;-66
2022/10/24 07:22:39;;;;;;;6.45;5.57;;;10.40;99.90;;;;;;5038925;28;20059;-66
2022/10/24 07:25:07;;;;;;;6.07;5.47;;;10.40;99.90;;;;;;5036350;28;20486;-66
2022/10/24 07:27:34;;;;;;;7.10;6.20;;;10.40;99.90;;;;;;5037824;28;20582;-65
2022/10/24 07:30:03;;;;;;;7.82;5.53;;;10.40;99.90;;;;;;5046655;28;20465;-64
2022/10/24 07:32:31;;;;;;;;;;;10.40;99.90;;;;;;5042468;28;20507;-69
2022/10/24 07:34:58;;;;;;;6.93;4.43;;;10.40;99.90;;;;;;5044814;28;19967;-70
2022/10/24 07:37:25;;;;;;;6.10;5.25;;;10.40;99.90;;;;;;5038476;28;20483;-65
2022/10/24 07:39:52;;;;;;;5.78;4.07;;;10.40;99.90;;;;;;5044734;28;20482;-72
2022/10/24 07:42:19;;;;;;;6.18;4.60;;;10.50;99.90;;;;;;5037061;28;20049;-64
2022/10/24 07:44:46;;;;;;;5.55;4.95;;;10.50;99.90;;;;;;5044200;28;20049;-65
2022/10/24 07:47:13;;;;;;;4.90;4.50;;;10.50;99.90;;;;;;5039582;28;20045;-66
2022/10/24 07:49:40;;;;;;;7.57;5.00;;;10.50;99.90;;;;;;5041785;28;20521;-64
2022/10/24 07:52:07;;;;;;;8.25;4.95;;;10.50;99.90;;;;;;5039973;28;20103;-67
2022/10/24 07:54:33;;;;;;;5.38;4.00;;;10.50;99.90;;;;;;5035949;28;20399;-66
2022/10/24 07:57:03;;;;;;;3.80;3.40;;;10.50;99.90;;;;;;5043398;28;20384;-65
2022/10/24 07:59:30;;;;;;;6.40;3.85;;;10.50;99.90;;;;;;5038906;28;20589;-65
2022/10/24 08:02:13;;;;;;;5.10;3.72;;;10.50;99.90;;;;;;5038478;28;20041;-64
2022/10/24 08:04:40;;;;;;;6.30;4.75;;;10.60;99.90;;;;;;5041190;28;20136;-65
2022/10/24 08:07:11;;;;;;;4.20;3.85;;;10.60;99.90;;;;;;5040786;28;20051;-67
2022/10/24 08:09:45;;;;;;;6.97;3.45;;;10.60;99.90;;;;;;5038773;28;20045;-66
2022/10/24 08:12:12;;;;;;;7.43;4.28;;;10.60;99.90;;;;;;5041090;28;20073;-65
2022/10/24 08:14:40;;;;;;;5.97;4.10;;;10.70;99.90;;;;;;5039079;28;20546;-66
2022/10/24 08:17:07;;;;;;;5.75;3.63;;;10.70;99.90;;;;;;5042374;28;20045;-66
2022/10/24 08:19:34;;;;;;;5.45;4.38;;;10.70;99.90;;;;;;5044804;28;20467;-66
2022/10/24 08:22:02;;;;;;;6.57;4.85;;;10.70;99.90;;;;;;5044407;28;20159;-66
2022/10/24 08:24:29;;;;;;;6.63;4.18;;;10.80;99.90;;;;;;5042754;28;20045;-68
2022/10/24 08:26:56;;;;;;;3.83;3.42;;;10.80;99.90;;;;;;5043699;28;20040;-65
2022/10/24 08:29:24;;;;;;;5.50;4.30;;;10.90;99.90;;;;;;5039013;28;20138;-65
2022/10/24 08:31:52;;;;;;;6.55;4.93;;;10.90;99.90;;;;;;5039462;28;20045;-65
2022/10/24 08:34:20;;;;;;;6.53;4.43;;;10.90;99.90;;;;;;5039674;28;20051;-67
2022/10/24 08:36:48;;;;;;;8.20;4.22;;;10.90;99.90;;;;;;5043745;28;20561;-65
2022/10/24 08:39:16;;;;;;;7.00;5.28;;;10.90;99.90;;;;;;5036935;28;20041;-66
2022/10/24 08:41:51;;;;;;;9.63;5.78;;;11.00;99.90;;;;;;5046871;28;20063;-69
2022/10/24 08:44:34;;;;;;;6.00;4.38;;;11.00;99.90;;;;;;5033146;28;20133;-67
2022/10/24 08:47:19;;;;;;;5.38;4.35;;;11.10;99.90;;;;;;5041572;28;20042;-65
2022/10/24 08:50:04;;;;;;;7.18;4.40;;;11.10;99.90;;;;;;5040693;28;20077;-65
2022/10/24 08:52:33;;;;;;;7.78;5.57;;;11.20;99.90;;;;;;5038234;28;20085;-65
2022/10/24 08:55:08;;;;;;;7.10;4.35;;;11.20;99.90;;;;;;5046418;28;20056;-65
2022/10/24 08:57:54;;;;;;;6.85;4.20;;;11.30;99.90;;;;;;5042384;28;20053;-66
2022/10/24 09:00:40;;;;;;;8.13;4.55;;;11.30;99.90;;;;;;5039778;28;20049;-66
2022/10/24 09:03:34;;;;;;;5.65;3.95;;;11.40;99.90;;;;;;5040087;28;20136;-67
2022/10/24 09:06:25;;;;;;;6.60;4.15;;;11.50;99.90;;;;;;5038577;28;20053;-66
2022/10/24 09:08:58;;;;;;;;;;;11.50;99.90;;;;;;5040255;28;20076;-66
2022/10/24 09:11:43;;;;;;;6.38;4.03;;;11.60;99.90;;;;;;5034490;28;19928;-65
2022/10/24 09:14:19;;;;;;;6.38;4.22;;;11.60;99.90;;;;;;5040824;28;20033;-65
2022/10/24 09:17:16;;;;;;;5.68;3.95;;;11.60;99.90;;;;;;5038766;28;20545;-65
2022/10/24 09:19:52;;;;;;;6.53;4.05;;;11.70;99.90;;;;;;5037782;28;20049;-65
2022/10/24 09:22:22;;;;;;;6.47;4.78;;;11.70;99.90;;;;;;5040717;28;20132;-69
2022/10/24 09:25:03;;;;;;;4.93;3.55;;;11.70;99.90;;;;;;5040628;28;20423;-66
2022/10/24 09:27:36;;;;;;;6.18;2.78;;;11.80;99.90;;;;;;5038739;28;20053;-66
2022/10/24 09:30:05;;;;;;;5.65;3.60;;;11.80;99.90;;;;;;5038964;28;20128;-66
2022/10/24 09:32:34;;;;;;;5.03;4.18;;;11.80;99.90;;;;;;5032177;28;20049;-67
2022/10/24 09:35:05;;;;;;;3.83;2.75;;;11.80;99.90;;;;;;5038759;28;20055;-66
2022/10/24 09:37:37;;;;;;;4.45;3.78;;;11.90;99.90;;;;;;5039553;28;20076;-69
2022/10/24 09:40:32;;;;;;;3.63;2.80;;;11.90;99.90;;;;;;5039663;28;20052;-66
2022/10/24 09:43:22;;;;;;;4.80;2.97;;;11.90;99.90;;;;;;5037540;28;20509;-65
2022/10/24 09:46:02;;;;;;;4.00;2.95;;;11.90;99.90;;;;;;5038359;28;20136;-66
2022/10/24 09:48:34;;;;;;;5.30;3.75;;;11.90;99.90;;;;;;5035685;28;20053;-65
2022/10/24 09:51:03;;;;;;;3.83;3.20;;;12.00;99.90;;;;;;5037781;28;20824;-66
2022/10/24 09:53:39;;;;;;;7.70;3.72;;;11.90;99.90;;;;;;5039934;28;20106;-65
2022/10/24 09:56:10;;;;;;;3.70;3.33;;;11.90;99.90;;;;;;5035668;28;20049;-65
2022/10/24 09:58:37;;;;;;;7.72;5.10;;;11.90;99.90;;;;;;5041680;28;20045;-69
2022/10/24 10:01:22;;;;;;;7.68;5.20;;;11.90;99.90;;;;;;5041113;28;20132;-65
2022/10/24 10:04:02;;;;;;;5.53;4.40;;;11.90;99.90;;;;;;5033057;28;20045;-67
2022/10/24 10:06:47;;;;;;;5.82;4.10;;;11.90;99.90;;;;;;5030960;28;20963;-65
2022/10/24 10:09:22;;;;;;;7.60;4.53;;;12.00;99.90;;;;;;5032601;28;20612;-66
2022/10/24 10:11:57;;;;;;;6.25;4.68;;;12.00;99.90;;;;;;5035934;28;20049;-70
2022/10/24 10:14:29;;;;;;;10.13;5.18;;;12.10;99.90;;;;;;5030442;28;20454;-65
2022/10/24 10:17:01;;;;;;;11.00;5.25;;;12.00;99.90;;;;;;5037303;28;20491;-66
2022/10/24 10:19:35;;;;;;;6.93;5.47;;;12.10;99.90;;;;;;5037791;28;20051;-65
2022/10/24 10:22:22;;;;;;;8.55;5.63;;;12.10;99.90;;;;;;5033943;28;20061;-65
2022/10/24 10:24:49;;;;;;;6.75;5.30;;;12.00;99.90;;;;;;5035765;28;20065;-69
2022/10/24 10:27:32;;;;;;;6.20;4.80;;;12.00;99.90;;;;;;5036490;28;20090;-67
2022/10/24 10:30:19;;;;;;;12.18;5.60;;;12.00;99.90;;;;;;5037724;28;20103;-65
2022/10/24 10:32:56;;;;;;;11.57;5.20;;;12.10;99.90;;;;;;5040316;28;20045;-66
2022/10/24 10:35:26;;;;;;;6.80;6.20;;;12.10;99.90;;;;;;5034202;28;20045;-66
2022/10/24 10:38:25;;;;;;;6.25;5.65;;;12.20;99.90;;;;;;5030747;28;20045;-68
2022/10/24 10:41:15;;;;;;;8.55;5.93;;;12.20;99.90;;;;;;5011978;28;20046;-65
2022/10/24 10:44:05;;;;;;;7.45;6.07;;;12.20;99.90;;;;;;5028221;28;20073;-66
2022/10/24 10:46:41;;;;;;;8.05;5.53;;;12.30;99.90;;;;;;5032045;28;20140;-67
2022/10/24 10:49:34;;;;;;;11.40;6.15;;;12.30;99.90;;;;;;5034347;28;20137;-66
2022/10/24 10:52:23;;;;;;;12.07;6.90;;;12.20;99.90;;;;;;5031082;28;20484;-68
2022/10/24 10:55:30;;;;;;;10.40;6.00;;;12.20;99.90;;;;;;5040435;28;20043;-67
2022/10/24 10:58:15;;;;;;;10.00;6.15;;;12.20;99.90;;;;;;5037761;28;20060;-65
2022/10/24 11:00:41;;;;;;;10.52;6.03;;;12.20;99.90;;;;;;5039674;28;20045;-64
2022/10/24 11:03:24;;;;;;;10.80;6.70;;;12.20;99.90;;;;;;5040112;28;20392;-67
2022/10/24 11:06:08;;;;;;;14.82;6.93;;;12.20;99.90;;;;;;5035623;28;20037;-65
2022/10/24 11:08:38;;;;;;;9.00;6.03;;;12.30;99.90;;;;;;5033509;28;20053;-69
2022/10/24 11:11:22;;;;;;;12.00;5.60;;;12.30;99.90;;;;;;5038602;28;20124;-64
2022/10/24 11:13:52;;;;;;;10.45;6.97;;;12.20;99.90;;;;;;5041278;28;20427;-65
2022/10/24 11:16:24;;;;;;;14.07;7.32;;;12.20;99.90;;;;;;5040165;28;20045;-65
2022/10/24 11:18:55;;;;;;;11.68;6.22;;;12.20;99.90;;;;;;5039845;28;20481;-65
2022/10/24 11:21:24;;;;;;;10.27;5.07;;;12.20;99.90;;;;;;5044096;28;20045;-65
2022/10/24 11:24:05;;;;;;;9.88;5.03;;;12.20;99.90;;;;;;5045551;28;20490;-64
2022/10/24 11:26:49;;;;;;;12.75;5.50;;;12.20;99.90;;;;;;5036774;28;20048;-64
2022/10/24 11:29:19;;;;;;;6.07;4.38;;;12.20;99.90;;;;;;5040781;28;20057;-64
2022/10/24 11:31:54;;;;;;;9.90;6.32;;;12.20;99.90;;;;;;5038644;28;20037;-66
2022/10/24 11:34:24;;;;;;;9.18;4.65;;;12.20;99.90;;;;;;5036976;28;20585;-64
2022/10/24 11:36:55;;;;;;;;;;;12.20;99.90;;;;;;5041579;28;20045;-65
2022/10/24 11:39:44;;;;;;;11.35;5.90;;;12.20;99.90;;;;;;5045112;28;20393;-65
2022/10/24 11:42:17;;;;;;;13.43;5.40;;;12.20;99.90;;;;;;5040065;28;20144;-64
2022/10/24 11:44:59;;;;;;;6.90;4.43;;;12.20;99.90;;;;;;5042953;28;20340;-70
2022/10/24 11:47:25;;;;;;;12.30;5.85;;;12.10;99.90;;;;;;5038613;28;20057;-66
2022/10/24 11:50:13;;;;;;;10.93;5.85;;;12.10;99.90;;;;;;5040171;28;20047;-63
2022/10/24 11:52:49;;;;;;;5.45;3.75;;;12.00;99.90;;;;;;5035385;28;20147;-64
2022/10/24 11:55:18;;;;;;;15.93;5.05;;;12.00;99.90;;;;;;5038896;28;20379;-68
2022/10/24 11:57:50;;;;;;;6.53;4.87;;;12.00;99.90;;;;;;5041966;28;20140;-63
2022/10/24 12:00:20;;;;;;;7.53;4.13;;;12.00;99.90;;;;;;5041012;28;20465;-65
2022/10/24 12:03:17;;;;;;;9.98;5.15;;;12.00;99.90;;;;;;5038870;28;20047;-64
2022/10/24 12:06:15;;;;;;;13.35;6.32;;;12.00;99.90;;;;;;5049023;28;20186;-65
2022/10/24 12:09:04;;;;;;;8.50;5.53;;;12.00;99.90;;;;;;5041844;28;20056;-67
2022/10/24 12:11:55;;;;;;;6.18;4.07;;;12.00;99.90;;;;;;5046472;28;20655;-65
2022/10/24 12:14:25;;;;;;;7.30;4.82;;;12.00;99.90;;;;;;5037419;28;20286;-65
2022/10/24 12:17:14;;;;;;;8.52;5.22;;;11.90;99.90;;;;;;5042472;28;20456;-64
2022/10/24 12:19:43;;;;;;;12.25;5.72;;;11.90;99.90;;;;;;5043310;28;20533;-64
2022/10/24 12:22:20;;;;;;;13.60;5.90;;;11.90;99.90;;;;;;5043792;28;20044;-67
2022/10/24 12:24:48;;;;;;;10.73;5.78;;;11.80;99.90;;;;;;5044287;28;20076;-66
2022/10/24 12:27:30;;;;;;;13.25;5.57;;;11.90;99.90;;;;;;5040025;28;20041;-63
2022/10/24 12:30:15;;;;;;;7.85;4.40;;;11.80;99.90;;;;;;5041330;28;20065;-67
2022/10/24 12:32:50;;;;;;;11.82;5.97;;;11.80;99.90;;;;;;5040304;28;20041;-63
2022/10/24 12:35:25;;;;;;;10.15;6.00;;;11.90;99.90;;;;;;5039331;28;20037;-66
2022/10/24 12:37:57;;;;;;;;;;;11.80;99.90;;;;;;5039743;28;20139;-64
2022/10/24 12:40:54;;;;;;;17.05;6.78;;;11.80;99.90;;;;;;5042548;28;19931;-69
2022/10/24 12:43:27;;;;;;;11.75;8.07;;;11.80;99.90;;;;;;5041165;28;20084;-64
2022/10/24 12:45:59;;;;;;;15.55;7.47;;;11.80;99.90;;;;;;5039568;28;20049;-68
2022/10/24 12:48:36;;;;;;;16.55;7.15;;;11.80;99.90;;;;;;5039576;28;20056;-66
2022/10/24 12:51:23;;;;;;;14.73;8.68;;;11.80;99.90;;;;;;5038064;28;20107;-72
2022/10/24 12:54:12;;;;;;;14.25;8.45;;;11.80;99.90;;;;;;5042723;28;20462;-64
2022/10/24 12:56:48;;;;;;;11.90;7.55;;;11.80;99.90;;;;;;5033439;28;20059;-63
2022/10/24 12:59:23;;;;;;;9.82;7.65;;;11.80;99.90;;;;;;5037234;28;20544;-63
2022/10/24 13:02:09;;;;;;;14.70;8.35;;;11.80;99.90;;;;;;5036343;28;20519;-64
2022/10/24 13:04:42;;;;;;;16.52;9.02;;;11.80;99.90;;;;;;5037458;28;20392;-65
2022/10/24 13:07:42;;;;;;;14.65;8.65;;;11.80;99.90;;;;;;5041451;28;20505;-64
2022/10/24 13:10:37;;;;;;;12.23;7.97;;;11.80;99.90;;;;;;5040818;28;20049;-66
2022/10/24 13:13:44;;;;;;;12.82;8.43;;;11.80;99.90;;;;;;5035926;28;20049;-64
2022/10/24 13:16:33;;;;;;;;;;;11.70;99.90;;;;;;5039880;28;20041;-68
2022/10/24 13:19:09;;;;;;;14.70;8.95;;;11.70;99.90;;;;;;5039418;28;20048;-66
2022/10/24 13:21:50;;;;;;;12.75;8.55;;;11.70;99.90;;;;;;5040640;28;20044;-65